createdAt,value
2019-03-24T00:01:10.273Z,132.63
2019-03-24T00:03:36.898Z,137.87
2019-03-24T00:06:03.661Z,149.30
2019-03-24T00:08:30.285Z,143.93
2019-03-24T00:10:57.154Z,133.57
2019-03-24T00:13:24.971Z,132.37
2019-03-24T00:15:51.772Z,136.40
2019-03-24T00:18:18.469Z,132.17
2019-03-24T00:20:45.193Z,147.97
2019-03-24T00:23:11.926Z,128.50
2019-03-24T00:25:38.612Z,139.73
2019-03-24T00:28:05.306Z,112.73
2019-03-24T00:30:32.018Z,134.80
2019-03-24T00:32:58.765Z,136.37
2019-03-24T00:35:25.537Z,117.47
2019-03-24T00:37:52.256Z,127.00
2019-03-24T00:40:18.949Z,140.63
2019-03-24T00:42:45.736Z,131.73
2019-03-24T00:45:12.424Z,121.60
2019-03-24T00:47:39.169Z,132.50
2019-03-24T00:50:06.114Z,131.60
2019-03-24T00:52:32.830Z,135.43
2019-03-24T00:54:59.552Z,139.83
2019-03-24T00:57:26.488Z,132.70
2019-03-24T00:59:53.184Z,135.07
2019-03-24T01:02:19.836Z,140.50
2019-03-24T01:04:46.624Z,131.07
2019-03-24T01:07:13.364Z,128.70
2019-03-24T01:09:40.098Z,138.23
2019-03-24T01:12:06.878Z,141.33
2019-03-24T01:14:33.585Z,136.93
2019-03-24T01:17:00.234Z,132.77
2019-03-24T01:19:26.987Z,144.70
2019-03-24T01:21:53.639Z,144.07
2019-03-24T01:24:20.323Z,137.37
2019-03-24T01:26:47.552Z,141.20
2019-03-24T01:29:14.251Z,127.87
2019-03-24T01:31:40.942Z,148.13
2019-03-24T01:34:07.632Z,129.70
2019-03-24T01:36:34.337Z,144.40
2019-03-24T01:39:00.982Z,118.80
2019-03-24T01:41:27.734Z,133.67
2019-03-24T01:43:54.469Z,139.63
2019-03-24T01:46:21.166Z,126.63
2019-03-24T01:48:47.956Z,139.60
2019-03-24T01:51:14.642Z,125.40
2019-03-24T01:53:41.287Z,131.30
2019-03-24T01:56:08.072Z,131.17
2019-03-24T01:58:34.784Z,144.67
2019-03-24T02:01:01.498Z,133.67
2019-03-24T02:03:28.252Z,134.83
2019-03-24T02:05:54.953Z,127.03
2019-03-24T02:08:21.587Z,136.83
2019-03-24T02:10:48.351Z,133.20
2019-03-24T02:13:15.051Z,127.93
2019-03-24T02:15:41.764Z,134.33
2019-03-24T02:18:08.521Z,108.43
2019-03-24T02:20:35.209Z,128.67
2019-03-24T02:23:01.926Z,118.77
2019-03-24T02:25:28.692Z,121.97
2019-03-24T02:27:55.423Z,123.27
2019-03-24T02:30:22.142Z,122.73
2019-03-24T02:32:48.919Z,121.90
2019-03-24T02:35:15.604Z,137.33
2019-03-24T02:37:42.301Z,135.53
2019-03-24T02:40:09.048Z,114.20
2019-03-24T02:42:35.732Z,129.00
2019-03-24T02:45:02.439Z,124.03
2019-03-24T02:47:29.185Z,112.47
2019-03-24T02:49:55.913Z,118.20
2019-03-24T02:52:22.631Z,132.73
2019-03-24T02:54:49.416Z,128.90
2019-03-24T02:57:16.146Z,116.33
2019-03-24T02:59:42.895Z,105.73
2019-03-24T03:02:09.651Z,118.30
2019-03-24T03:04:36.380Z,118.80
2019-03-24T03:07:03.118Z,125.97
2019-03-24T03:09:29.904Z,131.90
2019-03-24T03:11:56.596Z,118.00
2019-03-24T03:14:23.313Z,102.93
2019-03-24T03:16:50.065Z,100.17
2019-03-24T03:19:16.778Z,106.27
2019-03-24T03:21:43.523Z,110.27
2019-03-24T03:24:10.297Z,99.87
2019-03-24T03:26:37.012Z,108.97
2019-03-24T03:29:03.756Z,106.30
2019-03-24T03:31:30.506Z,114.27
2019-03-24T03:33:57.241Z,109.17
2019-03-24T03:36:23.935Z,118.93
2019-03-24T03:38:50.727Z,111.30
2019-03-24T03:41:17.422Z,110.27
2019-03-24T03:43:44.159Z,102.90
2019-03-24T03:46:10.958Z,107.53
2019-03-24T03:48:37.635Z,109.53
2019-03-24T03:51:04.365Z,108.03
2019-03-24T03:53:31.117Z,105.60
2019-03-24T03:55:57.775Z,97.97
2019-03-24T03:58:24.493Z,87.77
2019-03-24T04:00:51.275Z,96.60
2019-03-24T04:03:17.988Z,87.30
2019-03-24T04:05:44.696Z,74.80
2019-03-24T04:08:11.482Z,70.57
2019-03-24T04:10:38.203Z,56.50
2019-03-24T04:13:04.919Z,52.90
2019-03-24T04:15:31.721Z,48.20
2019-03-24T04:17:58.457Z,50.23
2019-03-24T04:20:25.151Z,44.00
2019-03-24T04:22:51.960Z,43.63
2019-03-24T04:25:18.648Z,40.07
2019-03-24T04:27:45.343Z,41.23
2019-03-24T04:30:12.049Z,37.53
2019-03-24T04:32:38.751Z,40.40
2019-03-24T04:35:05.472Z,33.30
2019-03-24T04:37:33.191Z,39.67
2019-03-24T04:39:59.978Z,40.00
2019-03-24T04:42:26.715Z,40.77
2019-03-24T04:44:53.664Z,41.57
2019-03-24T04:47:20.361Z,42.33
2019-03-24T04:49:46.985Z,38.63
2019-03-24T04:52:13.773Z,37.43
2019-03-24T04:54:40.466Z,34.17
2019-03-24T04:57:07.118Z,39.77
2019-03-24T04:59:33.915Z,35.87
2019-03-24T05:02:00.605Z,31.53
2019-03-24T05:04:27.299Z,32.70
2019-03-24T05:06:53.988Z,31.40
2019-03-24T05:09:20.637Z,36.47
2019-03-24T05:11:47.331Z,32.63
2019-03-24T05:14:14.037Z,34.10
2019-03-24T05:16:40.758Z,34.13
2019-03-24T05:19:07.447Z,29.57
2019-03-24T05:21:34.337Z,35.53
2019-03-24T05:24:01.266Z,26.77
2019-03-24T05:26:27.915Z,31.87
2019-03-24T05:28:54.706Z,26.60
2019-03-24T05:31:21.433Z,28.17
2019-03-24T05:33:48.122Z,25.83
2019-03-24T05:36:14.835Z,33.23
2019-03-24T05:38:41.543Z,25.87
2019-03-24T05:41:08.236Z,24.00
2019-03-24T05:43:34.925Z,26.17
2019-03-24T05:46:01.653Z,26.70
2019-03-24T05:48:28.383Z,28.83
2019-03-24T05:50:55.170Z,27.67
2019-03-24T05:53:21.912Z,27.53
2019-03-24T05:55:48.645Z,24.13
2019-03-24T05:58:15.439Z,28.10
2019-03-24T06:00:42.147Z,27.70
2019-03-24T06:03:08.887Z,25.80
2019-03-24T06:05:35.659Z,28.10
2019-03-24T06:08:02.386Z,31.67
2019-03-24T06:10:29.096Z,26.77
2019-03-24T06:12:55.853Z,27.83
2019-03-24T06:15:22.513Z,27.83
2019-03-24T06:17:49.228Z,26.90
2019-03-24T06:20:16.046Z,25.33
2019-03-24T06:22:42.775Z,25.77
2019-03-24T06:25:09.516Z,25.53
2019-03-24T06:27:36.272Z,24.10
2019-03-24T06:30:03.007Z,26.20
2019-03-24T06:32:29.696Z,27.37
2019-03-24T06:34:56.412Z,27.20
2019-03-24T06:37:23.115Z,25.47
2019-03-24T06:39:49.820Z,24.70
2019-03-24T06:42:16.566Z,27.97
2019-03-24T06:44:43.299Z,26.37
2019-03-24T06:47:10.017Z,23.93
2019-03-24T06:49:36.799Z,25.80
2019-03-24T06:52:03.536Z,24.57
2019-03-24T06:54:30.283Z,24.83
2019-03-24T06:56:57.066Z,25.07
2019-03-24T06:59:23.758Z,22.50
2019-03-24T07:01:50.412Z,21.90
2019-03-24T07:04:17.202Z,23.63
2019-03-24T07:06:43.933Z,24.53
2019-03-24T07:09:10.626Z,23.47
2019-03-24T07:11:37.328Z,27.00
2019-03-24T07:14:04.057Z,24.00
2019-03-24T07:16:30.774Z,23.67
2019-03-24T07:18:57.565Z,22.43
2019-03-24T07:21:24.528Z,24.27
2019-03-24T07:23:51.198Z,24.83
2019-03-24T07:26:18.128Z,23.93
2019-03-24T07:28:45.186Z,25.23
2019-03-24T07:31:12.026Z,23.70
2019-03-24T07:33:40.543Z,22.17
2019-03-24T07:36:09.334Z,21.67
2019-03-24T07:38:36.059Z,21.23
2019-03-24T07:41:03.273Z,19.80
2019-03-24T07:43:30.273Z,22.93
2019-03-24T07:45:57.232Z,19.97
2019-03-24T07:48:24.045Z,19.17
2019-03-24T07:50:50.792Z,23.47
2019-03-24T07:53:17.515Z,23.23
2019-03-24T07:55:44.239Z,19.57
2019-03-24T07:58:11.001Z,22.50
2019-03-24T08:00:37.721Z,21.47
2019-03-24T08:03:04.577Z,18.47
2019-03-24T08:05:31.487Z,22.60
2019-03-24T08:07:58.196Z,19.87
2019-03-24T08:10:25.051Z,25.40
2019-03-24T08:12:51.873Z,18.73
2019-03-24T08:15:18.580Z,21.37
2019-03-24T08:17:45.354Z,22.20
2019-03-24T08:20:12.420Z,19.00
2019-03-24T08:22:39.177Z,20.37
2019-03-24T08:25:05.994Z,17.80
2019-03-24T08:27:32.721Z,20.93
2019-03-24T08:29:59.460Z,21.03
2019-03-24T08:32:27.375Z,20.23
2019-03-24T08:34:54.126Z,17.43
2019-03-24T08:37:20.861Z,19.57
2019-03-24T08:39:47.811Z,21.30
2019-03-24T08:42:14.826Z,21.73
2019-03-24T08:44:41.617Z,20.93
2019-03-24T08:47:10.812Z,22.43
2019-03-24T08:49:37.936Z,19.90
2019-03-24T08:52:04.638Z,16.17
2019-03-24T08:54:31.516Z,16.07
2019-03-24T08:56:58.344Z,22.77
2019-03-24T08:59:25.384Z,16.48
2019-03-24T09:01:52.582Z,19.15
2019-03-24T09:04:19.339Z,22.07
2019-03-24T09:06:46.089Z,20.75
2019-03-24T09:09:13.744Z,16.97
2019-03-24T09:11:42.054Z,17.50
2019-03-24T09:14:09.469Z,20.08
2019-03-24T09:16:37.098Z,19.77
2019-03-24T09:19:03.852Z,16.95
2019-03-24T09:21:30.539Z,16.48
2019-03-24T09:23:57.224Z,18.17
2019-03-24T09:26:24.087Z,16.90
2019-03-24T09:28:50.902Z,17.48
2019-03-24T09:31:17.704Z,15.53
2019-03-24T09:33:44.468Z,17.45
2019-03-24T09:36:11.195Z,15.90
2019-03-24T09:38:38.960Z,15.53
2019-03-24T09:41:16.642Z,18.10
2019-03-24T09:43:43.759Z,17.67
2019-03-24T09:46:10.485Z,19.05
2019-03-24T09:48:38.346Z,13.72
2019-03-24T09:51:07.872Z,19.23
2019-03-24T09:53:35.590Z,15.85
2019-03-24T09:56:03.170Z,16.90
2019-03-24T09:58:31.551Z,17.32
2019-03-24T10:01:00.073Z,17.12
2019-03-24T10:03:27.286Z,16.12
2019-03-24T10:05:55.033Z,17.57
2019-03-24T10:08:23.330Z,21.62
2019-03-24T10:10:51.723Z,17.98
2019-03-24T10:13:20.443Z,16.55
2019-03-24T10:15:47.591Z,14.13
2019-03-24T10:18:14.431Z,14.05
2019-03-24T10:20:41.583Z,15.63
2019-03-24T10:23:08.368Z,18.20
2019-03-24T10:25:35.524Z,15.43
2019-03-24T10:28:02.586Z,14.68
2019-03-24T10:30:29.408Z,14.18
2019-03-24T10:32:56.315Z,16.57
2019-03-24T10:35:23.555Z,13.58
2019-03-24T10:37:50.469Z,18.62
2019-03-24T10:40:27.887Z,13.50
2019-03-24T10:42:45.698Z,15.88
2019-03-24T10:45:12.558Z,14.30
2019-03-24T10:47:39.980Z,13.80
2019-03-24T10:50:06.781Z,16.07
2019-03-24T10:52:33.503Z,16.62
2019-03-24T10:55:00.574Z,14.83
2019-03-24T10:57:27.331Z,15.20
2019-03-24T10:59:54.650Z,13.10
2019-03-24T11:02:21.572Z,15.23
2019-03-24T11:04:48.971Z,17.27
2019-03-24T11:07:15.675Z,12.13
2019-03-24T11:09:42.400Z,14.80
2019-03-24T11:12:09.860Z,15.18
2019-03-24T11:14:36.879Z,16.15
2019-03-24T11:17:03.602Z,18.42
2019-03-24T11:19:35.674Z,14.30
2019-03-24T11:21:58.919Z,15.25
2019-03-24T11:24:25.718Z,12.05
2019-03-24T11:26:52.504Z,15.80
2019-03-24T11:29:19.213Z,14.60
2019-03-24T11:31:46.848Z,14.58
2019-03-24T11:34:13.879Z,13.98
2019-03-24T11:36:40.600Z,17.92
2019-03-24T11:39:07.373Z,15.50
2019-03-24T11:41:34.566Z,13.72
2019-03-24T11:44:02.961Z,13.93
2019-03-24T11:46:29.747Z,16.87
2019-03-24T11:48:56.565Z,16.62
2019-03-24T11:51:23.266Z,14.83
2019-03-24T11:53:49.942Z,17.80
2019-03-24T11:56:17.645Z,17.80
2019-03-24T11:58:45.606Z,17.12
2019-03-24T12:01:12.670Z,18.82
2019-03-24T12:03:39.692Z,13.90
2019-03-24T12:06:14.400Z,18.55
2019-03-24T12:08:34.907Z,16.50
2019-03-24T12:11:01.860Z,15.72
2019-03-24T12:13:28.708Z,16.48
2019-03-24T12:15:55.693Z,14.98
2019-03-24T12:18:22.703Z,16.93
2019-03-24T12:20:49.369Z,17.57
2019-03-24T12:23:16.083Z,13.78
2019-03-24T12:25:42.876Z,14.93
2019-03-24T12:28:09.658Z,16.73
2019-03-24T12:30:36.379Z,16.97
2019-03-24T12:33:03.431Z,17.92
2019-03-24T12:35:30.133Z,14.40
2019-03-24T12:37:56.850Z,16.30
2019-03-24T12:40:23.570Z,15.90
2019-03-24T12:42:50.512Z,13.93
2019-03-24T12:45:17.203Z,17.30
2019-03-24T12:47:43.983Z,14.07
2019-03-24T12:50:10.684Z,14.73
2019-03-24T12:52:37.613Z,14.38
2019-03-24T12:55:04.419Z,14.87
2019-03-24T12:57:31.411Z,14.23
2019-03-24T12:59:58.460Z,14.20
2019-03-24T13:02:26.124Z,17.55
2019-03-24T13:04:53.275Z,16.30
2019-03-24T13:07:19.945Z,20.88
2019-03-24T13:09:46.698Z,19.37
2019-03-24T13:12:13.454Z,18.67
2019-03-24T13:14:40.490Z,16.20
2019-03-24T13:17:07.385Z,18.15
2019-03-24T13:19:36.095Z,17.32
2019-03-24T13:22:02.470Z,17.42
2019-03-24T13:24:29.749Z,14.25
2019-03-24T13:26:56.505Z,15.55
2019-03-24T13:29:23.281Z,13.62
2019-03-24T13:31:50.084Z,13.25
2019-03-24T13:34:16.773Z,13.25
2019-03-24T13:36:43.510Z,13.48
2019-03-24T13:39:10.307Z,13.83
2019-03-24T13:41:37.049Z,15.32
2019-03-24T13:44:03.786Z,18.42
2019-03-24T13:46:30.557Z,18.17
2019-03-24T13:48:57.286Z,15.65
2019-03-24T13:51:24.015Z,18.32
2019-03-24T13:53:50.803Z,17.25
2019-03-24T13:56:17.691Z,16.07
2019-03-24T13:58:44.364Z,15.88
2019-03-24T14:01:11.557Z,16.80
2019-03-24T14:03:38.238Z,17.02
2019-03-24T14:06:04.946Z,22.35
2019-03-24T14:08:31.820Z,16.87
2019-03-24T14:10:58.531Z,14.90
2019-03-24T14:13:25.255Z,16.07
2019-03-24T14:15:52.261Z,12.98
2019-03-24T14:18:18.997Z,15.78
2019-03-24T14:20:45.758Z,16.90
2019-03-24T14:23:12.655Z,14.80
2019-03-24T14:25:39.397Z,16.62
2019-03-24T14:28:06.111Z,14.80
2019-03-24T14:30:32.946Z,15.68
2019-03-24T14:32:59.652Z,16.82
2019-03-24T14:35:26.289Z,18.75
2019-03-24T14:37:53.166Z,16.50
2019-03-24T14:40:19.893Z,15.78
2019-03-24T14:42:46.666Z,17.50
2019-03-24T14:45:13.381Z,15.75
2019-03-24T14:47:40.100Z,18.02
2019-03-24T14:50:06.789Z,23.85
2019-03-24T14:52:33.734Z,30.30
2019-03-24T14:55:00.427Z,25.05
2019-03-24T14:57:27.061Z,24.98
2019-03-24T14:59:53.817Z,28.40
2019-03-24T15:02:20.549Z,28.73
2019-03-24T15:04:47.290Z,34.17
2019-03-24T15:07:14.077Z,29.50
2019-03-24T15:09:40.767Z,31.23
2019-03-24T15:12:07.404Z,31.90
2019-03-24T15:14:34.197Z,41.23
2019-03-24T15:17:00.890Z,32.03
2019-03-24T15:19:27.522Z,27.00
2019-03-24T15:21:54.274Z,30.07
2019-03-24T15:24:20.978Z,27.63
2019-03-24T15:26:47.722Z,38.70
2019-03-24T15:29:14.504Z,32.47
2019-03-24T15:31:41.206Z,26.63
2019-03-24T15:34:07.904Z,28.30
2019-03-24T15:36:34.703Z,35.87
2019-03-24T15:39:01.457Z,30.97
2019-03-24T15:41:28.170Z,29.40
2019-03-24T15:43:54.976Z,32.57
2019-03-24T15:46:21.690Z,34.87
2019-03-24T15:48:50.191Z,33.67
2019-03-24T15:51:17.439Z,40.60
2019-03-24T15:53:44.167Z,34.93
2019-03-24T15:56:10.834Z,30.53
2019-03-24T15:58:37.596Z,39.83
2019-03-24T16:01:04.334Z,35.47
2019-03-24T16:03:31.034Z,34.77
2019-03-24T16:05:57.802Z,36.77
2019-03-24T16:08:24.539Z,26.60
2019-03-24T16:10:51.232Z,55.77
2019-03-24T16:13:18.010Z,34.77
2019-03-24T16:15:44.744Z,35.03
2019-03-24T16:18:11.722Z,46.00
2019-03-24T16:20:38.475Z,36.27
2019-03-24T16:23:05.138Z,27.23
2019-03-24T16:25:31.878Z,36.53
2019-03-24T16:27:58.620Z,34.93
2019-03-24T16:30:25.269Z,45.93
2019-03-24T16:32:51.983Z,36.20
2019-03-24T16:35:18.869Z,45.47
2019-03-24T16:37:45.518Z,43.73
2019-03-24T16:40:12.205Z,27.27
2019-03-24T16:42:39.041Z,33.40
2019-03-24T16:45:05.762Z,31.10
2019-03-24T16:47:32.469Z,29.93
2019-03-24T16:49:59.227Z,32.73
2019-03-24T16:52:25.949Z,36.93
2019-03-24T16:54:52.652Z,35.57
2019-03-24T16:57:19.466Z,37.00
2019-03-24T16:59:46.148Z,32.73
2019-03-24T17:02:12.880Z,32.73
2019-03-24T17:04:39.699Z,40.60
2019-03-24T17:07:06.387Z,33.60
2019-03-24T17:09:33.048Z,38.90
2019-03-24T17:11:59.867Z,41.20
2019-03-24T17:14:26.859Z,51.57
2019-03-24T17:16:53.632Z,35.70
2019-03-24T17:19:20.478Z,37.87
2019-03-24T17:21:50.194Z,44.80
2019-03-24T17:24:15.542Z,39.83
2019-03-24T17:26:42.429Z,47.73
2019-03-24T17:29:09.123Z,48.10
2019-03-24T17:31:36.761Z,46.40
2019-03-24T17:34:03.599Z,53.03
2019-03-24T17:36:30.331Z,49.53
2019-03-24T17:38:57.071Z,35.83
2019-03-24T17:41:23.823Z,38.27
2019-03-24T17:43:50.567Z,44.43
2019-03-24T17:46:19.436Z,39.67
2019-03-24T17:48:45.854Z,38.17
2019-03-24T17:51:12.541Z,48.43
2019-03-24T17:53:39.258Z,43.57
2019-03-24T17:56:06.040Z,39.30
2019-03-24T17:58:32.766Z,43.30
2019-03-24T18:00:59.492Z,38.40
2019-03-24T18:03:26.255Z,40.57
2019-03-24T18:05:52.949Z,44.33
2019-03-24T18:08:19.674Z,50.90
2019-03-24T18:10:46.453Z,49.47
2019-03-24T18:13:13.207Z,61.17
2019-03-24T18:15:39.853Z,52.00
2019-03-24T18:18:06.607Z,47.70
2019-03-24T18:20:33.245Z,52.70
2019-03-24T18:22:59.950Z,43.70
2019-03-24T18:25:26.660Z,48.30
2019-03-24T18:27:53.391Z,41.50
2019-03-24T18:30:20.109Z,45.97
2019-03-24T18:32:46.873Z,52.37
2019-03-24T18:35:13.570Z,55.03
2019-03-24T18:37:40.303Z,46.70
2019-03-24T18:40:07.284Z,49.27
2019-03-24T18:42:33.956Z,54.20
2019-03-24T18:45:00.666Z,56.77
2019-03-24T18:47:27.456Z,51.83
2019-03-24T18:49:54.167Z,56.73
2019-03-24T18:52:22.854Z,58.20
2019-03-24T18:54:50.263Z,51.67
2019-03-24T18:57:16.999Z,43.27
2019-03-24T18:59:43.743Z,53.90
2019-03-24T19:02:10.525Z,53.83
2019-03-24T19:04:37.258Z,56.33
2019-03-24T19:07:04.012Z,45.80
2019-03-24T19:09:30.963Z,58.23
2019-03-24T19:11:57.639Z,54.87
2019-03-24T19:14:24.413Z,49.73
2019-03-24T19:16:51.209Z,44.87
2019-03-24T19:19:17.954Z,66.83
2019-03-24T19:21:45.439Z,51.47
2019-03-24T19:24:12.241Z,55.97
2019-03-24T19:26:38.961Z,53.20
2019-03-24T19:29:05.687Z,50.30
2019-03-24T19:31:32.536Z,54.37
2019-03-24T19:33:59.249Z,56.93
2019-03-24T19:36:25.941Z,51.20
2019-03-24T19:38:52.698Z,56.67
2019-03-24T19:41:19.363Z,54.60
2019-03-24T19:43:46.237Z,61.47
2019-03-24T19:46:13.106Z,55.30
2019-03-24T19:48:39.799Z,53.30
2019-03-24T19:51:07.249Z,57.27
2019-03-24T19:53:34.034Z,58.60
2019-03-24T19:56:00.746Z,54.13
2019-03-24T19:58:27.475Z,57.80
2019-03-24T20:00:54.252Z,56.47
2019-03-24T20:03:20.896Z,68.60
2019-03-24T20:05:47.634Z,61.93
2019-03-24T20:08:14.392Z,59.40
2019-03-24T20:10:41.184Z,65.40
2019-03-24T20:13:07.933Z,55.50
2019-03-24T20:15:34.699Z,63.10
2019-03-24T20:18:01.729Z,55.13
2019-03-24T20:20:28.826Z,51.43
2019-03-24T20:22:57.102Z,48.87
2019-03-24T20:25:24.251Z,65.30
2019-03-24T20:27:50.980Z,47.20
2019-03-24T20:30:17.992Z,52.97
2019-03-24T20:32:45.062Z,66.47
2019-03-24T20:35:11.783Z,53.63
2019-03-24T20:37:38.496Z,49.03
2019-03-24T20:40:06.731Z,54.27
2019-03-24T20:42:33.646Z,47.03
2019-03-24T20:45:00.466Z,51.93
2019-03-24T20:47:27.311Z,50.83
2019-03-24T20:49:54.178Z,45.33
2019-03-24T20:52:21.640Z,53.47
2019-03-24T20:54:48.572Z,40.90
2019-03-24T20:57:15.301Z,51.13
2019-03-24T20:59:42.061Z,41.20
2019-03-24T21:02:08.783Z,48.47
2019-03-24T21:04:35.820Z,45.67
2019-03-24T21:07:03.829Z,39.97
2019-03-24T21:09:30.707Z,39.97
2019-03-24T21:11:58.465Z,41.23
2019-03-24T21:14:25.264Z,34.67
2019-03-24T21:16:51.960Z,40.97
2019-03-24T21:19:20.057Z,42.90
2019-03-24T21:21:46.855Z,45.30
2019-03-24T21:24:13.564Z,42.33
2019-03-24T21:26:41.015Z,41.43
2019-03-24T21:29:08.179Z,46.50
2019-03-24T21:31:35.221Z,32.67
2019-03-24T21:34:01.957Z,40.17
2019-03-24T21:36:28.739Z,34.43
2019-03-24T21:38:55.438Z,31.07
2019-03-24T21:41:22.182Z,35.53
2019-03-24T21:43:48.938Z,27.27
2019-03-24T21:46:15.835Z,31.33
2019-03-24T21:48:42.531Z,39.03
2019-03-24T21:51:09.315Z,32.33
2019-03-24T21:53:40.578Z,26.83
2019-03-24T21:56:04.569Z,28.57
2019-03-24T21:58:31.301Z,29.53
2019-03-24T22:00:58.048Z,23.73
2019-03-24T22:03:24.827Z,33.47
2019-03-24T22:05:51.852Z,29.37
2019-03-24T22:08:18.557Z,35.70
2019-03-24T22:10:45.309Z,26.83
2019-03-24T22:13:12.071Z,22.90
2019-03-24T22:15:38.791Z,24.63
2019-03-24T22:18:05.514Z,27.23
2019-03-24T22:20:32.433Z,22.30
2019-03-24T22:22:59.132Z,20.03
2019-03-24T22:25:25.860Z,27.50
2019-03-24T22:27:52.653Z,19.00
2019-03-24T22:30:19.342Z,18.90
2019-03-24T22:32:46.071Z,23.97
2019-03-24T22:35:12.828Z,32.43
2019-03-24T22:40:30.886Z,20.97
2019-03-24T22:42:57.652Z,26.00
2019-03-24T22:45:24.441Z,31.70
2019-03-24T22:47:51.286Z,21.90
2019-03-24T22:50:18.019Z,29.43
2019-03-24T22:52:44.866Z,24.80
2019-03-24T22:55:11.709Z,21.67
2019-03-24T22:57:38.462Z,27.30
2019-03-24T23:00:05.229Z,29.87
2019-03-24T23:02:32.023Z,21.90
2019-03-24T23:04:58.879Z,20.30
2019-03-24T23:07:25.699Z,22.33
2019-03-24T23:09:53.189Z,19.97
2019-03-24T23:12:19.897Z,26.87
2019-03-24T23:14:46.587Z,24.33
2019-03-24T23:17:13.346Z,24.77
2019-03-24T23:19:40.057Z,21.77
2019-03-24T23:22:06.775Z,32.60
2019-03-24T23:24:33.536Z,24.20
2019-03-24T23:27:00.251Z,21.60
2019-03-24T23:29:26.974Z,25.47
2019-03-24T23:31:53.818Z,25.30
2019-03-24T23:34:20.652Z,28.27
2019-03-24T23:36:47.591Z,24.53
2019-03-24T23:39:14.385Z,31.97
2019-03-24T23:41:41.097Z,23.93
2019-03-24T23:44:07.813Z,26.27
2019-03-24T23:46:36.157Z,22.03
2019-03-24T23:49:02.969Z,19.23
2019-03-24T23:51:29.779Z,30.53
2019-03-24T23:53:56.990Z,28.90
2019-03-24T23:56:23.766Z,28.13
2019-03-24T23:58:50.513Z,26.03
